sensor_id;sensor_type;location;lat;lon;timestamp;pressure;altitude;pressure_sealevel;temperature;humidity
49122;BME280;35529;44.342;25.944;2023-08-07T00:00:13;99566.00;;;22.14;100.00
49122;BME280;35529;44.342;25.944;2023-08-07T00:02:39;99549.84;;;22.08;100.00
49122;BME280;35529;44.342;25.944;2023-08-07T00:05:05;99562.97;;;22.01;100.00
49122;BME280;35529;44.342;25.944;2023-08-07T00:07:32;99579.84;;;21.93;100.00
49122;BME280;35529;44.342;25.944;2023-08-07T00:09:58;99574.31;;;21.84;100.00
49122;BME280;35529;44.342;25.944;2023-08-07T00:12:24;99574.19;;;21.75;100.00
49122;BME280;35529;44.342;25.944;2023-08-07T00:14:50;99567.22;;;21.69;100.00
49122;BME280;35529;44.342;25.944;2023-08-07T00:17:16;99577.63;;;21.62;100.00
49122;BME280;35529;44.342;25.944;2023-08-07T00:19:42;99574.97;;;21.57;100.00
49122;BME280;35529;44.342;25.944;2023-08-07T00:22:08;99565.59;;;21.49;100.00
49122;BME280;35529;44.342;25.944;2023-08-07T00:24:34;99572.47;;;21.41;100.00
49122;BME280;35529;44.342;25.944;2023-08-07T00:27:01;99581.66;;;21.40;100.00
49122;BME280;35529;44.342;25.944;2023-08-07T00:29:27;99573.91;;;21.34;100.00
49122;BME280;35529;44.342;25.944;2023-08-07T00:31:53;99583.91;;;21.33;100.00
49122;BME280;35529;44.342;25.944;2023-08-07T00:34:19;99593.09;;;21.32;100.00
49122;BME280;35529;44.342;25.944;2023-08-07T00:36:45;99586.97;;;21.26;100.00
49122;BME280;35529;44.342;25.944;2023-08-07T00:39:11;99595.66;;;21.23;100.00
49122;BME280;35529;44.342;25.944;2023-08-07T00:41:37;99591.63;;;21.21;100.00
49122;BME280;35529;44.342;25.944;2023-08-07T00:44:03;99600.59;;;21.16;100.00
49122;BME280;35529;44.342;25.944;2023-08-07T00:46:29;99594.38;;;21.16;100.00
49122;BME280;35529;44.342;25.944;2023-08-07T00:48:56;99602.53;;;21.10;100.00
49122;BME280;35529;44.342;25.944;2023-08-07T00:51:23;99608.53;;;21.07;100.00
49122;BME280;35529;44.342;25.944;2023-08-07T00:53:49;99610.94;;;21.09;100.00
49122;BME280;35529;44.342;25.944;2023-08-07T00:56:16;99609.84;;;21.10;100.00
49122;BME280;35529;44.342;25.944;2023-08-07T00:58:43;99620.94;;;21.08;100.00
49122;BME280;35529;44.342;25.944;2023-08-07T01:01:09;99606.22;;;20.96;100.00
49122;BME280;35529;44.342;25.944;2023-08-07T01:03:35;99615.34;;;20.75;100.00
49122;BME280;35529;44.342;25.944;2023-08-07T01:06:02;99611.91;;;20.65;100.00
49122;BME280;35529;44.342;25.944;2023-08-07T01:08:28;99607.44;;;20.55;100.00
49122;BME280;35529;44.342;25.944;2023-08-07T01:13:40;99625.66;;;20.39;100.00
49122;BME280;35529;44.342;25.944;2023-08-07T01:16:14;99625.44;;;20.30;100.00
49122;BME280;35529;44.342;25.944;2023-08-07T01:18:42;99617.09;;;20.26;100.00
49122;BME280;35529;44.342;25.944;2023-08-07T01:21:17;99620.94;;;20.20;100.00
49122;BME280;35529;44.342;25.944;2023-08-07T01:23:43;99623.13;;;20.13;100.00
49122;BME280;35529;44.342;25.944;2023-08-07T01:26:09;99626.97;;;20.07;100.00
49122;BME280;35529;44.342;25.944;2023-08-07T01:28:36;99626.66;;;20.14;100.00
49122;BME280;35529;44.342;25.944;2023-08-07T01:31:05;99624.72;;;20.19;100.00
49122;BME280;35529;44.342;25.944;2023-08-07T01:36:18;99642.78;;;20.19;100.00
49122;BME280;35529;44.342;25.944;2023-08-07T01:38:45;99641.97;;;20.18;100.00
49122;BME280;35529;44.342;25.944;2023-08-07T01:41:11;99644.69;;;20.13;100.00
49122;BME280;35529;44.342;25.944;2023-08-07T01:43:38;99650.41;;;20.06;100.00
49122;BME280;35529;44.342;25.944;2023-08-07T01:46:04;99634.00;;;20.03;100.00
49122;BME280;35529;44.342;25.944;2023-08-07T01:48:32;99643.75;;;19.99;100.00
49122;BME280;35529;44.342;25.944;2023-08-07T01:50:58;99669.06;;;19.98;100.00
49122;BME280;35529;44.342;25.944;2023-08-07T01:53:24;99652.66;;;19.89;100.00
49122;BME280;35529;44.342;25.944;2023-08-07T01:55:50;99645.72;;;19.83;100.00
49122;BME280;35529;44.342;25.944;2023-08-07T01:58:16;99646.50;;;19.78;100.00
49122;BME280;35529;44.342;25.944;2023-08-07T02:00:42;99667.56;;;19.71;100.00
49122;BME280;35529;44.342;25.944;2023-08-07T02:03:09;99671.06;;;19.71;100.00
49122;BME280;35529;44.342;25.944;2023-08-07T02:05:35;99663.78;;;19.72;100.00
49122;BME280;35529;44.342;25.944;2023-08-07T02:08:01;99666.78;;;19.65;100.00
49122;BME280;35529;44.342;25.944;2023-08-07T02:10:27;99664.91;;;19.60;100.00
49122;BME280;35529;44.342;25.944;2023-08-07T02:12:54;99680.81;;;19.57;100.00
49122;BME280;35529;44.342;25.944;2023-08-07T02:15:20;99666.28;;;19.53;100.00
49122;BME280;35529;44.342;25.944;2023-08-07T02:17:46;99676.81;;;19.54;100.00
49122;BME280;35529;44.342;25.944;2023-08-07T02:20:12;99672.78;;;19.52;100.00
49122;BME280;35529;44.342;25.944;2023-08-07T02:22:38;99666.34;;;19.48;100.00
49122;BME280;35529;44.342;25.944;2023-08-07T02:25:04;99664.94;;;19.50;100.00
49122;BME280;35529;44.342;25.944;2023-08-07T02:27:30;99665.25;;;19.43;100.00
49122;BME280;35529;44.342;25.944;2023-08-07T02:29:56;99664.19;;;19.39;100.00
49122;BME280;35529;44.342;25.944;2023-08-07T02:32:23;99679.28;;;19.35;100.00
49122;BME280;35529;44.342;25.944;2023-08-07T02:34:49;99671.22;;;19.35;100.00
49122;BME280;35529;44.342;25.944;2023-08-07T02:37:15;99674.47;;;19.32;100.00
49122;BME280;35529;44.342;25.944;2023-08-07T02:39:42;99677.16;;;19.32;100.00
49122;BME280;35529;44.342;25.944;2023-08-07T02:42:08;99672.31;;;19.34;100.00
49122;BME280;35529;44.342;25.944;2023-08-07T02:44:34;99681.97;;;19.35;100.00
49122;BME280;35529;44.342;25.944;2023-08-07T02:47:00;99686.00;;;19.33;100.00
49122;BME280;35529;44.342;25.944;2023-08-07T02:49:26;99678.50;;;19.30;100.00
49122;BME280;35529;44.342;25.944;2023-08-07T02:51:53;99680.13;;;19.25;100.00
49122;BME280;35529;44.342;25.944;2023-08-07T02:54:19;99682.03;;;19.20;100.00
49122;BME280;35529;44.342;25.944;2023-08-07T02:56:45;99689.06;;;19.11;100.00
49122;BME280;35529;44.342;25.944;2023-08-07T02:59:11;99685.81;;;19.08;100.00
49122;BME280;35529;44.342;25.944;2023-08-07T03:01:37;99696.56;;;19.08;100.00
49122;BME280;35529;44.342;25.944;2023-08-07T03:04:03;99704.13;;;19.06;100.00
49122;BME280;35529;44.342;25.944;2023-08-07T03:06:29;99700.66;;;19.01;100.00
49122;BME280;35529;44.342;25.944;2023-08-07T03:08:55;99702.00;;;18.98;100.00
49122;BME280;35529;44.342;25.944;2023-08-07T03:11:21;99705.75;;;18.97;100.00
49122;BME280;35529;44.342;25.944;2023-08-07T03:13:48;99710.84;;;18.99;100.00
49122;BME280;35529;44.342;25.944;2023-08-07T03:16:15;99721.06;;;19.02;100.00
49122;BME280;35529;44.342;25.944;2023-08-07T03:18:41;99727.28;;;18.97;100.00
49122;BME280;35529;44.342;25.944;2023-08-07T03:21:07;99720.78;;;19.03;100.00
49122;BME280;35529;44.342;25.944;2023-08-07T03:23:33;99724.03;;;19.05;100.00
49122;BME280;35529;44.342;25.944;2023-08-07T03:26:03;99725.09;;;19.04;100.00
49122;BME280;35529;44.342;25.944;2023-08-07T03:28:29;99722.41;;;18.99;100.00
49122;BME280;35529;44.342;25.944;2023-08-07T03:30:55;99706.56;;;18.98;100.00
49122;BME280;35529;44.342;25.944;2023-08-07T03:33:21;99706.81;;;19.01;100.00
49122;BME280;35529;44.342;25.944;2023-08-07T03:35:48;99707.34;;;19.03;100.00
49122;BME280;35529;44.342;25.944;2023-08-07T03:38:14;99719.44;;;19.06;100.00
49122;BME280;35529;44.342;25.944;2023-08-07T03:40:40;99722.41;;;18.99;100.00
49122;BME280;35529;44.342;25.944;2023-08-07T03:43:06;99722.97;;;18.96;100.00
49122;BME280;35529;44.342;25.944;2023-08-07T03:45:32;99720.81;;;18.98;100.00
49122;BME280;35529;44.342;25.944;2023-08-07T03:47:58;99722.41;;;19.04;100.00
49122;BME280;35529;44.342;25.944;2023-08-07T03:50:24;99733.44;;;19.08;100.00
49122;BME280;35529;44.342;25.944;2023-08-07T03:52:50;99728.06;;;19.08;100.00
49122;BME280;35529;44.342;25.944;2023-08-07T03:55:16;99724.88;;;19.01;100.00
49122;BME280;35529;44.342;25.944;2023-08-07T03:57:42;99732.09;;;19.00;100.00
49122;BME280;35529;44.342;25.944;2023-08-07T04:00:08;99719.72;;;19.09;100.00
49122;BME280;35529;44.342;25.944;2023-08-07T04:02:35;99717.53;;;19.17;100.00
49122;BME280;35529;44.342;25.944;2023-08-07T04:05:01;99709.44;;;19.27;100.00
49122;BME280;35529;44.342;25.944;2023-08-07T04:07:27;99716.97;;;19.35;100.00
49122;BME280;35529;44.342;25.944;2023-08-07T04:09:53;99734.19;;;19.39;100.00
49122;BME280;35529;44.342;25.944;2023-08-07T04:12:19;99724.50;;;19.38;100.00
49122;BME280;35529;44.342;25.944;2023-08-07T04:14:45;99721.28;;;19.31;100.00
49122;BME280;35529;44.342;25.944;2023-08-07T04:17:11;99731.53;;;19.34;100.00
49122;BME280;35529;44.342;25.944;2023-08-07T04:19:37;99734.44;;;19.43;100.00
49122;BME280;35529;44.342;25.944;2023-08-07T04:22:03;99728.75;;;19.55;100.00
49122;BME280;35529;44.342;25.944;2023-08-07T04:24:30;99733.56;;;19.63;100.00
49122;BME280;35529;44.342;25.944;2023-08-07T04:26:56;99738.69;;;19.65;100.00
49122;BME280;35529;44.342;25.944;2023-08-07T04:29:23;99741.63;;;19.68;100.00
49122;BME280;35529;44.342;25.944;2023-08-07T04:31:49;99752.41;;;19.68;100.00
49122;BME280;35529;44.342;25.944;2023-08-07T04:34:15;99742.16;;;19.70;100.00
49122;BME280;35529;44.342;25.944;2023-08-07T04:36:42;99758.31;;;19.75;100.00
49122;BME280;35529;44.342;25.944;2023-08-07T04:39:08;99753.44;;;19.88;100.00
49122;BME280;35529;44.342;25.944;2023-08-07T04:41:34;99753.41;;;19.93;100.00
49122;BME280;35529;44.342;25.944;2023-08-07T04:44:00;99753.94;;;20.00;100.00
49122;BME280;35529;44.342;25.944;2023-08-07T04:46:26;99759.56;;;20.04;100.00
49122;BME280;35529;44.342;25.944;2023-08-07T04:48:52;99762.78;;;20.06;100.00
49122;BME280;35529;44.342;25.944;2023-08-07T04:51:20;99755.47;;;20.12;100.00
49122;BME280;35529;44.342;25.944;2023-08-07T04:53:46;99761.63;;;20.17;100.00
49122;BME280;35529;44.342;25.944;2023-08-07T04:56:16;99758.94;;;20.17;100.00
49122;BME280;35529;44.342;25.944;2023-08-07T04:58:43;99763.50;;;20.22;100.00
49122;BME280;35529;44.342;25.944;2023-08-07T05:01:09;99762.63;;;20.32;100.00
49122;BME280;35529;44.342;25.944;2023-08-07T05:03:35;99766.38;;;20.36;100.00
49122;BME280;35529;44.342;25.944;2023-08-07T05:06:01;99769.63;;;20.38;100.00
49122;BME280;35529;44.342;25.944;2023-08-07T05:08:27;99766.34;;;20.46;100.00
49122;BME280;35529;44.342;25.944;2023-08-07T05:10:53;99771.41;;;20.53;100.00
49122;BME280;35529;44.342;25.944;2023-08-07T05:13:19;99779.16;;;20.65;100.00
49122;BME280;35529;44.342;25.944;2023-08-07T05:15:48;99783.44;;;20.71;100.00
49122;BME280;35529;44.342;25.944;2023-08-07T05:18:15;99779.91;;;20.75;100.00
49122;BME280;35529;44.342;25.944;2023-08-07T05:20:41;99785.78;;;20.83;100.00
49122;BME280;35529;44.342;25.944;2023-08-07T05:23:08;99781.22;;;20.83;100.00
49122;BME280;35529;44.342;25.944;2023-08-07T05:25:34;99785.78;;;20.83;100.00
49122;BME280;35529;44.342;25.944;2023-08-07T05:28:00;99789.50;;;20.92;100.00
49122;BME280;35529;44.342;25.944;2023-08-07T05:30:27;99806.66;;;21.06;100.00
49122;BME280;35529;44.342;25.944;2023-08-07T05:32:53;99797.88;;;21.20;100.00
49122;BME280;35529;44.342;25.944;2023-08-07T05:35:19;99796.72;;;21.31;100.00
49122;BME280;35529;44.342;25.944;2023-08-07T05:37:45;99804.69;;;21.41;100.00
49122;BME280;35529;44.342;25.944;2023-08-07T05:40:11;99789.03;;;21.43;100.00
49122;BME280;35529;44.342;25.944;2023-08-07T05:42:37;99787.94;;;21.45;100.00
49122;BME280;35529;44.342;25.944;2023-08-07T05:45:04;99793.81;;;21.52;100.00
49122;BME280;35529;44.342;25.944;2023-08-07T05:47:31;99783.78;;;21.57;100.00
49122;BME280;35529;44.342;25.944;2023-08-07T05:49:58;99792.34;;;21.65;100.00
49122;BME280;35529;44.342;25.944;2023-08-07T05:52:24;99788.84;;;21.64;100.00
49122;BME280;35529;44.342;25.944;2023-08-07T05:54:50;99804.81;;;21.60;100.00
49122;BME280;35529;44.342;25.944;2023-08-07T05:57:17;99813.69;;;21.66;100.00
49122;BME280;35529;44.342;25.944;2023-08-07T05:59:43;99811.25;;;21.65;100.00
49122;BME280;35529;44.342;25.944;2023-08-07T06:02:09;99813.69;;;21.66;100.00
49122;BME280;35529;44.342;25.944;2023-08-07T06:04:37;99817.16;;;21.67;100.00
49122;BME280;35529;44.342;25.944;2023-08-07T06:07:04;99828.16;;;21.75;100.00
49122;BME280;35529;44.342;25.944;2023-08-07T06:09:31;99840.16;;;21.88;100.00
49122;BME280;35529;44.342;25.944;2023-08-07T06:11:57;99827.13;;;21.96;100.00
49122;BME280;35529;44.342;25.944;2023-08-07T06:14:23;99839.19;;;22.03;100.00
49122;BME280;35529;44.342;25.944;2023-08-07T06:16:51;99836.72;;;22.07;100.00
49122;BME280;35529;44.342;25.944;2023-08-07T06:19:17;99845.34;;;22.09;100.00
49122;BME280;35529;44.342;25.944;2023-08-07T06:21:43;99845.00;;;22.16;100.00
49122;BME280;35529;44.342;25.944;2023-08-07T06:24:09;99839.00;;;22.19;100.00
49122;BME280;35529;44.342;25.944;2023-08-07T06:26:36;99836.97;;;22.30;100.00
49122;BME280;35529;44.342;25.944;2023-08-07T06:29:02;99832.25;;;22.40;100.00
49122;BME280;35529;44.342;25.944;2023-08-07T06:31:28;99828.91;;;22.49;100.00
49122;BME280;35529;44.342;25.944;2023-08-07T06:33:54;99836.66;;;22.55;100.00
49122;BME280;35529;44.342;25.944;2023-08-07T06:36:20;99849.25;;;22.65;100.00
49122;BME280;35529;44.342;25.944;2023-08-07T06:38:46;99844.56;;;22.71;100.00
49122;BME280;35529;44.342;25.944;2023-08-07T06:41:12;99844.91;;;22.83;100.00
49122;BME280;35529;44.342;25.944;2023-08-07T06:43:38;99845.19;;;23.01;100.00
49122;BME280;35529;44.342;25.944;2023-08-07T06:46:05;99864.13;;;23.20;100.00
49122;BME280;35529;44.342;25.944;2023-08-07T06:48:31;99863.16;;;23.30;100.00
49122;BME280;35529;44.342;25.944;2023-08-07T06:50:57;99859.97;;;23.41;100.00
49122;BME280;35529;44.342;25.944;2023-08-07T06:53:23;99862.00;;;23.50;100.00
49122;BME280;35529;44.342;25.944;2023-08-07T06:55:50;99869.44;;;23.58;100.00
49122;BME280;35529;44.342;25.944;2023-08-07T06:58:16;99854.81;;;23.59;100.00
49122;BME280;35529;44.342;25.944;2023-08-07T07:00:42;99865.53;;;23.64;100.00
49122;BME280;35529;44.342;25.944;2023-08-07T07:03:08;99871.06;;;23.73;100.00
49122;BME280;35529;44.342;25.944;2023-08-07T07:05:35;99868.97;;;23.84;100.00
49122;BME280;35529;44.342;25.944;2023-08-07T07:08:01;99874.81;;;23.91;100.00
49122;BME280;35529;44.342;25.944;2023-08-07T07:10:28;99878.56;;;23.95;100.00
49122;BME280;35529;44.342;25.944;2023-08-07T07:12:54;99885.16;;;24.03;100.00
49122;BME280;35529;44.342;25.944;2023-08-07T07:15:21;99894.41;;;24.16;100.00
49122;BME280;35529;44.342;25.944;2023-08-07T07:17:47;99883.66;;;24.24;100.00
49122;BME280;35529;44.342;25.944;2023-08-07T07:20:13;99883.75;;;24.33;100.00
49122;BME280;35529;44.342;25.944;2023-08-07T07:22:39;99887.56;;;24.46;100.00
49122;BME280;35529;44.342;25.944;2023-08-07T07:25:05;99890.34;;;24.55;100.00
49122;BME280;35529;44.342;25.944;2023-08-07T07:27:31;99890.94;;;24.66;100.00
49122;BME280;35529;44.342;25.944;2023-08-07T07:29:58;99881.28;;;24.73;100.00
49122;BME280;35529;44.342;25.944;2023-08-07T07:32:24;99891.09;;;24.83;100.00
49122;BME280;35529;44.342;25.944;2023-08-07T07:34:51;99887.69;;;24.77;100.00
49122;BME280;35529;44.342;25.944;2023-08-07T07:37:18;99902.28;;;24.82;100.00
49122;BME280;35529;44.342;25.944;2023-08-07T07:39:44;99892.78;;;24.93;100.00
49122;BME280;35529;44.342;25.944;2023-08-07T07:42:10;99884.69;;;25.02;100.00
49122;BME280;35529;44.342;25.944;2023-08-07T07:44:36;99888.09;;;25.07;100.00
49122;BME280;35529;44.342;25.944;2023-08-07T07:47:02;99897.19;;;25.25;100.00
49122;BME280;35529;44.342;25.944;2023-08-07T07:49:28;99894.25;;;25.36;100.00
49122;BME280;35529;44.342;25.944;2023-08-07T07:51:54;99893.66;;;25.48;100.00
49122;BME280;35529;44.342;25.944;2023-08-07T07:54:20;99894.50;;;25.57;100.00
49122;BME280;35529;44.342;25.944;2023-08-07T07:56:47;99901.44;;;25.63;100.00
49122;BME280;35529;44.342;25.944;2023-08-07T07:59:13;99905.91;;;25.68;100.00
49122;BME280;35529;44.342;25.944;2023-08-07T08:01:39;99899.38;;;25.69;100.00
49122;BME280;35529;44.342;25.944;2023-08-07T08:04:06;99913.19;;;25.81;100.00
49122;BME280;35529;44.342;25.944;2023-08-07T08:06:35;99906.19;;;25.89;100.00
49122;BME280;35529;44.342;25.944;2023-08-07T08:09:04;99907.66;;;25.95;100.00
49122;BME280;35529;44.342;25.944;2023-08-07T08:11:30;99898.94;;;26.07;100.00
49122;BME280;35529;44.342;25.944;2023-08-07T08:13:57;99911.31;;;26.22;100.00
49122;BME280;35529;44.342;25.944;2023-08-07T08:16:23;99900.28;;;26.27;100.00
49122;BME280;35529;44.342;25.944;2023-08-07T08:18:49;99897.56;;;26.27;100.00
49122;BME280;35529;44.342;25.944;2023-08-07T08:21:15;99901.38;;;26.26;100.00
49122;BME280;35529;44.342;25.944;2023-08-07T08:23:41;99910.34;;;26.18;100.00
49122;BME280;35529;44.342;25.944;2023-08-07T08:26:07;99901.03;;;26.19;100.00
49122;BME280;35529;44.342;25.944;2023-08-07T08:28:33;99917.34;;;26.19;100.00
49122;BME280;35529;44.342;25.944;2023-08-07T08:30:59;99921.69;;;26.20;100.00
49122;BME280;35529;44.342;25.944;2023-08-07T08:33:25;99910.19;;;26.23;100.00
49122;BME280;35529;44.342;25.944;2023-08-07T08:35:51;99902.63;;;26.20;100.00
49122;BME280;35529;44.342;25.944;2023-08-07T08:38:17;99904.88;;;26.18;100.00
49122;BME280;35529;44.342;25.944;2023-08-07T08:40:45;99897.84;;;26.17;100.00
49122;BME280;35529;44.342;25.944;2023-08-07T08:43:12;99898.47;;;26.14;100.00
49122;BME280;35529;44.342;25.944;2023-08-07T08:45:39;99905.50;;;26.15;100.00
49122;BME280;35529;44.342;25.944;2023-08-07T08:48:07;99908.72;;;26.17;100.00
49122;BME280;35529;44.342;25.944;2023-08-07T08:50:33;99917.34;;;26.19;100.00
49122;BME280;35529;44.342;25.944;2023-08-07T08:53:01;99919.78;;;26.29;100.00
49122;BME280;35529;44.342;25.944;2023-08-07T08:55:28;99920.16;;;26.45;100.00
49122;BME280;35529;44.342;25.944;2023-08-07T08:57:55;99916.34;;;26.64;100.00
49122;BME280;35529;44.342;25.944;2023-08-07T09:00:23;99910.13;;;26.72;97.25
49122;BME280;35529;44.342;25.944;2023-08-07T09:02:51;99914.16;;;26.74;97.65
49122;BME280;35529;44.342;25.944;2023-08-07T09:05:18;99920.25;;;26.89;93.90
49122;BME280;35529;44.342;25.944;2023-08-07T09:07:46;99933.06;;;26.80;93.93
49122;BME280;35529;44.342;25.944;2023-08-07T09:10:15;99922.44;;;26.60;93.00
49122;BME280;35529;44.342;25.944;2023-08-07T09:12:42;99908.97;;;26.64;95.01
49122;BME280;35529;44.342;25.944;2023-08-07T09:15:13;99914.31;;;26.87;95.35
49122;BME280;35529;44.342;25.944;2023-08-07T09:17:41;99920.88;;;27.12;91.64
49122;BME280;35529;44.342;25.944;2023-08-07T09:20:08;99936.75;;;27.19;88.60
49122;BME280;35529;44.342;25.944;2023-08-07T09:22:38;99906.63;;;27.06;90.62
49122;BME280;35529;44.342;25.944;2023-08-07T09:25:04;99916.25;;;27.13;95.98
49122;BME280;35529;44.342;25.944;2023-08-07T09:27:30;99909.81;;;27.26;96.93
49122;BME280;35529;44.342;25.944;2023-08-07T09:29:57;99927.13;;;27.39;92.86
49122;BME280;35529;44.342;25.944;2023-08-07T09:32:23;99923.41;;;27.52;91.51
49122;BME280;35529;44.342;25.944;2023-08-07T09:34:50;99920.97;;;27.68;94.46
49122;BME280;35529;44.342;25.944;2023-08-07T09:37:17;99936.38;;;27.64;94.80
49122;BME280;35529;44.342;25.944;2023-08-07T09:39:43;99930.75;;;27.69;92.06
49122;BME280;35529;44.342;25.944;2023-08-07T09:42:16;99934.38;;;27.82;92.52
49122;BME280;35529;44.342;25.944;2023-08-07T09:44:42;99934.53;;;27.86;90.75
49122;BME280;35529;44.342;25.944;2023-08-07T09:49:38;99933.09;;;27.88;90.93
49122;BME280;35529;44.342;25.944;2023-08-07T09:52:05;99924.88;;;27.97;90.49
49122;BME280;35529;44.342;25.944;2023-08-07T09:54:33;99935.31;;;27.95;88.33
49122;BME280;35529;44.342;25.944;2023-08-07T09:57:00;99949.50;;;27.80;91.67
49122;BME280;35529;44.342;25.944;2023-08-07T09:59:27;99937.44;;;27.81;92.84
49122;BME280;35529;44.342;25.944;2023-08-07T10:01:54;99942.28;;;27.75;91.02
49122;BME280;35529;44.342;25.944;2023-08-07T10:04:23;99955.97;;;27.49;92.86
49122;BME280;35529;44.342;25.944;2023-08-07T10:06:49;99946.53;;;27.37;90.42
49122;BME280;35529;44.342;25.944;2023-08-07T10:09:16;99944.31;;;27.39;92.68
49122;BME280;35529;44.342;25.944;2023-08-07T10:11:43;99932.56;;;27.48;95.11
49122;BME280;35529;44.342;25.944;2023-08-07T10:14:09;99936.88;;;27.66;93.86
49122;BME280;35529;44.342;25.944;2023-08-07T10:16:35;99923.97;;;27.75;93.68
49122;BME280;35529;44.342;25.944;2023-08-07T10:19:05;99923.00;;;27.80;93.24
49122;BME280;35529;44.342;25.944;2023-08-07T10:21:32;99924.47;;;27.77;91.53
49122;BME280;35529;44.342;25.944;2023-08-07T10:24:00;99923.00;;;27.80;89.08
49122;BME280;35529;44.342;25.944;2023-08-07T10:26:29;99936.38;;;27.73;87.83
49122;BME280;35529;44.342;25.944;2023-08-07T10:28:56;99948.25;;;27.68;85.75
49122;BME280;35529;44.342;25.944;2023-08-07T10:31:23;99929.91;;;27.77;87.27
49122;BME280;35529;44.342;25.944;2023-08-07T10:33:50;99930.53;;;27.83;87.70
49122;BME280;35529;44.342;25.944;2023-08-07T10:36:16;99924.13;;;27.88;86.91
49122;BME280;35529;44.342;25.944;2023-08-07T10:38:43;99932.09;;;28.02;87.51
49122;BME280;35529;44.342;25.944;2023-08-07T10:41:12;99912.66;;;28.12;85.62
49122;BME280;35529;44.342;25.944;2023-08-07T10:43:42;99933.03;;;28.15;85.42
49122;BME280;35529;44.342;25.944;2023-08-07T10:46:10;99928.31;;;28.24;83.63
49122;BME280;35529;44.342;25.944;2023-08-07T10:51:05;99919.38;;;28.45;82.16
49122;BME280;35529;44.342;25.944;2023-08-07T10:53:39;99920.91;;;28.54;85.20
49122;BME280;35529;44.342;25.944;2023-08-07T10:56:10;99917.63;;;28.61;82.61
49122;BME280;35529;44.342;25.944;2023-08-07T10:58:40;99916.34;;;28.67;81.26
49122;BME280;35529;44.342;25.944;2023-08-07T11:03:35;99920.94;;;28.75;83.67
49122;BME280;35529;44.342;25.944;2023-08-07T11:06:01;99915.72;;;28.83;80.83
49122;BME280;35529;44.342;25.944;2023-08-07T11:08:28;99895.28;;;28.89;81.91
49122;BME280;35529;44.342;25.944;2023-08-07T11:10:54;99907.41;;;29.00;79.25
49122;BME280;35529;44.342;25.944;2023-08-07T11:13:21;99913.00;;;29.04;76.72
49122;BME280;35529;44.342;25.944;2023-08-07T11:15:47;99903.09;;;28.99;75.76
49122;BME280;35529;44.342;25.944;2023-08-07T11:18:13;99911.16;;;28.96;77.12
49122;BME280;35529;44.342;25.944;2023-08-07T11:20:40;99912.41;;;28.98;78.53
49122;BME280;35529;44.342;25.944;2023-08-07T11:23:06;99913.81;;;29.04;79.80
49122;BME280;35529;44.342;25.944;2023-08-07T11:25:32;99906.00;;;29.15;80.71
49122;BME280;35529;44.342;25.944;2023-08-07T11:27:58;99895.59;;;29.08;79.30
49122;BME280;35529;44.342;25.944;2023-08-07T11:30:24;99898.78;;;29.10;79.27
49122;BME280;35529;44.342;25.944;2023-08-07T11:32:50;99899.25;;;29.13;80.60
49122;BME280;35529;44.342;25.944;2023-08-07T11:35:17;99893.69;;;29.21;79.35
49122;BME280;35529;44.342;25.944;2023-08-07T11:37:47;99895.25;;;29.31;78.99
49122;BME280;35529;44.342;25.944;2023-08-07T11:40:13;99907.13;;;29.48;79.68
49122;BME280;35529;44.342;25.944;2023-08-07T11:42:42;99907.13;;;29.35;75.85
49122;BME280;35529;44.342;25.944;2023-08-07T11:45:08;99898.78;;;29.32;77.34
49122;BME280;35529;44.342;25.944;2023-08-07T11:47:35;99895.25;;;29.31;76.63
49122;BME280;35529;44.342;25.944;2023-08-07T11:50:01;99897.44;;;29.38;75.64
49122;BME280;35529;44.342;25.944;2023-08-07T11:52:27;99896.28;;;29.39;75.34
49122;BME280;35529;44.342;25.944;2023-08-07T11:54:54;99901.09;;;29.42;77.65
49122;BME280;35529;44.342;25.944;2023-08-07T11:57:20;99896.63;;;29.37;73.34
49122;BME280;35529;44.342;25.944;2023-08-07T11:59:52;99898.34;;;29.42;75.96
49122;BME280;35529;44.342;25.944;2023-08-07T12:02:24;99895.31;;;29.56;74.31
49122;BME280;35529;44.342;25.944;2023-08-07T12:04:50;99902.59;;;29.64;72.55
49122;BME280;35529;44.342;25.944;2023-08-07T12:07:17;99890.09;;;29.75;72.25
49122;BME280;35529;44.342;25.944;2023-08-07T12:09:45;99903.03;;;29.87;73.28
49122;BME280;35529;44.342;25.944;2023-08-07T12:12:13;99882.72;;;30.01;70.61
49122;BME280;35529;44.342;25.944;2023-08-07T12:14:39;99885.78;;;29.99;68.84
49122;BME280;35529;44.342;25.944;2023-08-07T12:17:08;99895.13;;;29.86;68.72
49122;BME280;35529;44.342;25.944;2023-08-07T12:19:35;99889.53;;;29.70;69.63
49122;BME280;35529;44.342;25.944;2023-08-07T12:22:01;99889.53;;;29.82;70.94
49122;BME280;35529;44.342;25.944;2023-08-07T12:24:29;99891.81;;;29.92;67.99
49122;BME280;35529;44.342;25.944;2023-08-07T12:26:56;99893.19;;;29.99;68.36
49122;BME280;35529;44.342;25.944;2023-08-07T12:29:22;99909.06;;;30.05;64.26
49122;BME280;35529;44.342;25.944;2023-08-07T12:31:49;99888.06;;;29.97;67.05
49122;BME280;35529;44.342;25.944;2023-08-07T12:34:16;99892.19;;;30.03;67.10
49122;BME280;35529;44.342;25.944;2023-08-07T12:36:42;99882.38;;;30.02;67.94
49122;BME280;35529;44.342;25.944;2023-08-07T12:39:08;99896.28;;;30.09;68.95
49122;BME280;35529;44.342;25.944;2023-08-07T12:41:35;99898.22;;;30.09;64.00
49122;BME280;35529;44.342;25.944;2023-08-07T12:44:01;99897.19;;;30.01;65.64
49122;BME280;35529;44.342;25.944;2023-08-07T12:46:27;99895.81;;;29.95;66.58
49122;BME280;35529;44.342;25.944;2023-08-07T12:48:53;99894.47;;;30.01;66.87
49122;BME280;35529;44.342;25.944;2023-08-07T12:51:19;99886.94;;;29.98;67.47